Time;durP1;ratioP1;P1;durP2;ratioP2;P2;SDS_P1;SDS_P2;PMS_P1;PMS_P2;Temp;Humidity;BMP_temperature;BMP_pressure;BME280_temperature;BME280_humidity;BME280_pressure;Samples;Min_cycle;Max_cycle;Signal;HPM_P1;HPM_P2
2023/02/25 00:04:00;;;;;;;28.60;12.90;;;;;;;2.75;100.00;98274.52;220757;1272;140416;-88
2023/02/25 00:09:01;;;;;;;29.90;13.60;;;;;;;2.77;100.00;98260.17;220295;1270;139479;-89
2023/02/25 00:14:02;;;;;;;28.70;13.80;;;;;;;2.76;100.00;98249.40;220746;1272;105612;-83
2023/02/25 00:19:02;;;;;;;27.50;13.30;;;;;;;2.77;100.00;98244.28;220626;1269;139565;-84
2023/02/25 00:24:03;;;;;;;27.30;13.00;;;;;;;2.78;100.00;98241.02;220734;1272;138727;-86
2023/02/25 00:29:04;;;;;;;26.30;13.40;;;;;;;2.79;100.00;98233.83;220052;1270;139036;-86
2023/02/25 00:34:05;;;;;;;26.90;12.20;;;;;;;2.80;100.00;98227.45;220837;1269;138899;-83
2023/02/25 00:39:05;;;;;;;27.80;12.90;;;;;;;2.82;100.00;98219.24;220059;1268;139180;-83
2023/02/25 00:44:06;;;;;;;28.80;13.20;;;;;;;2.85;100.00;98216.30;220955;1270;97908;-84
2023/02/25 00:49:07;;;;;;;24.50;13.10;;;;;;;2.87;100.00;98205.54;220757;1270;139137;-83
2023/02/25 00:54:07;;;;;;;29.20;14.10;;;;;;;2.89;100.00;98199.20;220949;1270;138614;-84
2023/02/25 00:59:07;;;;;;;28.50;14.00;;;;;;;2.89;100.00;98196.48;220331;1269;139983;-84
2023/02/25 01:04:08;;;;;;;24.10;12.80;;;;;;;2.90;100.00;98193.14;221943;1268;139487;-85
2023/02/25 01:09:12;;;;;;;26.30;13.30;;;;;;;2.91;100.00;98188.73;221102;1268;139284;-84
2023/02/25 01:14:19;;;;;;;25.90;13.00;;;;;;;2.92;100.00;98178.33;220737;1270;104469;-84
2023/02/25 01:19:23;;;;;;;28.10;14.10;;;;;;;2.95;100.00;98175.15;220240;1271;139265;-84
2023/02/25 01:24:27;;;;;;;24.10;12.80;;;;;;;2.95;100.00;98166.30;220854;1269;138565;-85
2023/02/25 01:29:34;;;;;;;27.10;13.30;;;;;;;2.95;100.00;98159.10;220443;1271;140036;-86
2023/02/25 01:34:35;;;;;;;31.30;14.80;;;;;;;2.97;100.00;98159.80;220587;1271;138864;-86
2023/02/25 01:39:35;;;;;;;26.30;14.20;;;;;;;2.98;100.00;98152.75;220314;1268;139092;-86
2023/02/25 01:44:57;;;;;;;26.20;14.30;;;;;;;2.99;100.00;98146.15;222163;1268;97980;-86
2023/02/25 01:49:58;;;;;;;25.80;13.40;;;;;;;3.00;100.00;98138.47;220108;1268;139005;-86
2023/02/25 01:54:58;;;;;;;23.60;12.50;;;;;;;3.02;100.00;98138.55;220856;1271;138496;-86
2023/02/25 01:59:59;;;;;;;28.70;15.20;;;;;;;3.03;100.00;98128.31;220183;1269;139023;-81
2023/02/25 02:04:59;;;;;;;27.20;13.40;;;;;;;3.04;100.00;98116.04;220757;1267;138681;-85
2023/02/25 02:10:01;;;;;;;23.60;12.30;;;;;;;3.05;100.00;98110.85;220933;1267;139624;-84
2023/02/25 02:15:05;;;;;;;25.70;12.60;;;;;;;3.07;100.00;98100.45;221801;1268;97891;-83
2023/02/25 02:20:31;;;;;;;24.70;12.90;;;;;;;3.09;100.00;98095.42;220777;1270;139449;-83
2023/02/25 02:26:09;;;;;;;23.30;11.50;;;;;;;3.10;100.00;98089.98;220687;1269;138691;-83
2023/02/25 02:31:34;;;;;;;24.00;12.50;;;;;;;3.10;100.00;98080.83;220574;1269;138888;-83
2023/02/25 02:37:11;;;;;;;23.00;12.20;;;;;;;3.15;100.00;98084.48;220112;1268;139951;-83
2023/02/25 02:42:22;;;;;;;24.80;12.40;;;;;;;3.16;100.00;98073.85;221310;1270;138851;-82
2023/02/25 02:47:45;;;;;;;21.20;11.00;;;;;;;3.15;100.00;98061.05;220105;1269;139291;-82
2023/02/25 02:52:51;;;;;;;21.20;11.20;;;;;;;3.17;100.00;98056.30;220745;1268;138778;-85
2023/02/25 02:58:02;;;;;;;23.30;12.50;;;;;;;3.17;100.00;98052.42;220098;1267;139456;-84
2023/02/25 03:03:08;;;;;;;20.30;10.90;;;;;;;3.18;100.00;98051.58;220867;1267;110440;-84
2023/02/25 03:08:14;;;;;;;20.20;10.90;;;;;;;3.18;100.00;98050.02;220172;1267;140477;-84
2023/02/25 03:13:15;;;;;;;19.40;10.60;;;;;;;3.19;100.00;98050.57;220647;1269;140180;-85
2023/02/25 03:18:36;;;;;;;22.40;11.60;;;;;;;3.19;100.00;98051.81;220871;1267;140231;-84
2023/02/25 03:23:40;;;;;;;20.10;10.40;;;;;;;3.21;100.00;98046.46;220744;1267;138614;-84
2023/02/25 03:28:43;;;;;;;18.60;10.00;;;;;;;3.21;100.00;98041.10;220159;1268;139336;-84
2023/02/25 03:34:15;;;;;;;17.90;10.70;;;;;;;3.22;100.00;98038.00;220564;1271;139014;-85
2023/02/25 03:39:19;;;;;;;20.30;10.20;;;;;;;3.22;100.00;98037.23;220171;1268;139391;-84
2023/02/25 03:44:26;;;;;;;19.80;10.20;;;;;;;3.23;100.00;98035.73;220658;1268;98721;-83
2023/02/25 03:49:29;;;;;;;;;;;;;;;3.21;100.00;98033.80;220089;1268;141643;-85
2023/02/25 03:54:30;;;;;;;20.80;10.90;;;;;;;3.19;100.00;98030.38;220723;1269;124867;-84
2023/02/25 03:59:30;;;;;;;19.80;10.30;;;;;;;3.16;100.00;98029.83;220114;1268;139205;-84
2023/02/25 04:04:30;;;;;;;23.10;11.20;;;;;;;3.14;100.00;98028.20;220663;1269;138724;-85
2023/02/25 04:09:31;;;;;;;22.20;11.30;;;;;;;3.12;100.00;98028.52;220197;1267;233381;-85
2023/02/25 04:14:31;;;;;;;19.10;9.50;;;;;;;3.10;100.00;98034.48;220699;1268;108572;-83
2023/02/25 04:19:32;;;;;;;17.50;9.20;;;;;;;3.06;100.00;98032.52;220057;1269;139516;-84
2023/02/25 04:24:32;;;;;;;19.60;9.00;;;;;;;3.03;100.00;98029.81;220644;1269;139394;-84
2023/02/25 04:29:32;;;;;;;18.20;8.60;;;;;;;2.99;100.00;98032.75;220113;1267;139062;-84
2023/02/25 04:34:33;;;;;;;19.30;8.70;;;;;;;2.92;100.00;98040.80;220672;1267;138548;-84
2023/02/25 04:39:33;;;;;;;14.30;7.40;;;;;;;2.89;100.00;98038.00;220138;1269;138893;-84
2023/02/25 04:44:34;;;;;;;14.20;7.10;;;;;;;2.82;100.00;98039.30;220745;1267;98079;-83
2023/02/25 04:49:43;;;;;;;13.10;6.40;;;;;;;2.76;100.00;98032.07;220127;1268;138225;-83
2023/02/25 04:54:43;;;;;;;12.60;5.60;;;;;;;2.72;100.00;98027.63;220743;1269;138323;-85
2023/02/25 04:59:44;;;;;;;9.60;4.10;;;;;;;2.67;100.00;98024.73;220153;1268;139899;-84
2023/02/25 05:04:44;;;;;;;10.40;4.70;;;;;;;2.62;100.00;98023.25;220731;1270;138529;-84
2023/02/25 05:09:45;;;;;;;11.50;4.70;;;;;;;2.57;100.00;98018.49;220105;1268;139152;-83
2023/02/25 05:14:45;;;;;;;10.40;4.30;;;;;;;2.53;100.00;98014.84;220546;1269;265157;-80
2023/02/25 05:19:45;;;;;;;9.60;4.00;;;;;;;2.47;100.00;98010.00;220171;1268;140100;-81
2023/02/25 05:24:46;;;;;;;8.30;3.70;;;;;;;2.41;100.00;98012.08;220544;1267;138499;-82
2023/02/25 05:29:46;;;;;;;10.60;3.80;;;;;;;2.38;100.00;98012.99;220198;1267;138689;-81
2023/02/25 05:34:46;;;;;;;9.00;4.00;;;;;;;2.35;100.00;98017.79;220622;1267;138923;-84
2023/02/25 05:39:47;;;;;;;9.00;3.90;;;;;;;2.32;100.00;98017.61;219976;1268;139184;-81
2023/02/25 05:44:47;;;;;;;8.30;3.80;;;;;;;2.33;100.00;98017.70;220743;1267;98462;-85
2023/02/25 05:49:47;;;;;;;8.20;3.50;;;;;;;2.33;100.00;98022.04;220172;1267;139946;-89
2023/02/25 05:54:48;;;;;;;8.60;3.30;;;;;;;2.31;100.00;98027.61;220626;1269;138690;-87
2023/02/25 05:59:49;;;;;;;9.40;3.80;;;;;;;2.29;100.00;98035.05;220188;1269;139171;-89
2023/02/25 06:04:52;;;;;;;10.00;3.70;;;;;;;2.30;100.00;98040.33;220755;1268;139051;-88
2023/02/25 06:10:01;;;;;;;8.10;3.00;;;;;;;2.29;100.00;98039.85;220645;1269;141018;-88
2023/02/25 06:15:01;;;;;;;7.90;3.10;;;;;;;2.29;100.00;98044.81;220913;1269;98731;-84
2023/02/25 06:20:02;;;;;;;5.50;2.30;;;;;;;2.31;100.00;98051.89;220050;1269;138824;-84
2023/02/25 06:25:03;;;;;;;7.80;2.60;;;;;;;2.32;100.00;98055.30;220758;1269;139033;-83
2023/02/25 06:30:04;;;;;;;5.60;2.20;;;;;;;2.28;100.00;98059.38;220314;1267;139181;-84
2023/02/25 06:35:05;;;;;;;6.00;2.40;;;;;;;2.28;100.00;98064.58;220674;1269;138453;-84
2023/02/25 06:40:06;;;;;;;5.20;2.30;;;;;;;2.26;100.00;98070.39;220138;1267;141195;-87
2023/02/25 06:45:07;;;;;;;6.40;2.30;;;;;;;2.27;100.00;98076.97;220586;1267;97885;-83
2023/02/25 06:50:08;;;;;;;4.80;2.30;;;;;;;2.27;100.00;98080.39;220002;1269;138294;-86
2023/02/25 06:55:09;;;;;;;5.90;2.20;;;;;;;2.29;100.00;98087.30;220583;1268;139258;-86
2023/02/25 07:00:10;;;;;;;3.80;1.90;;;;;;;2.34;100.00;98089.27;220148;1268;138685;-88
2023/02/25 07:05:11;;;;;;;4.20;1.90;;;;;;;2.37;100.00;98094.48;220694;1267;139562;-87
2023/02/25 07:10:11;;;;;;;5.30;2.40;;;;;;;2.39;100.00;98097.43;220143;1268;139880;-85
2023/02/25 07:15:12;;;;;;;5.70;2.40;;;;;;;2.39;100.00;98101.79;220716;1267;97909;-84
2023/02/25 07:20:23;;;;;;;6.00;2.50;;;;;;;2.43;100.00;98106.99;220025;1269;138509;-84
2023/02/25 07:25:23;;;;;;;5.80;2.30;;;;;;;2.45;100.00;98109.41;222458;1267;138509;-83
2023/02/25 07:30:23;;;;;;;5.40;2.50;;;;;;;2.43;100.00;98112.73;220230;1267;138646;-84
2023/02/25 07:35:24;;;;;;;5.90;2.60;;;;;;;2.43;100.00;98122.52;221040;1268;139011;-84
2023/02/25 07:40:43;;;;;;;5.00;2.30;;;;;;;2.47;100.00;98127.41;220197;1269;138629;-86
2023/02/25 07:45:44;;;;;;;4.50;2.30;;;;;;;2.49;100.00;98132.08;220457;1268;138406;-83
2023/02/25 07:50:46;;;;;;;13.60;5.90;;;;;;;2.49;100.00;98136.35;220476;1267;138654;-85
2023/02/25 07:55:51;;;;;;;10.80;4.10;;;;;;;2.51;100.00;98143.10;220989;1269;138540;-86
2023/02/25 08:00:52;;;;;;;7.00;2.90;;;;;;;2.55;100.00;98145.14;220115;1268;138338;-85
2023/02/25 08:05:59;;;;;;;6.10;2.90;;;;;;;2.60;100.00;98150.53;220262;1267;138345;-87
2023/02/25 08:11:07;;;;;;;7.70;3.40;;;;;;;2.63;100.00;98148.84;220418;1269;139029;-83
2023/02/25 08:16:18;;;;;;;6.90;3.00;;;;;;;2.73;100.00;98148.44;220021;1267;139008;-84
2023/02/25 08:21:20;;;;;;;7.80;3.80;;;;;;;2.81;100.00;98155.07;220809;1268;111273;-85
2023/02/25 08:26:26;;;;;;;8.30;3.70;;;;;;;2.88;100.00;98161.93;221034;1269;138559;-87
2023/02/25 08:31:27;;;;;;;6.90;3.30;;;;;;;2.96;100.00;98159.10;220368;1271;138363;-85
2023/02/25 08:36:30;;;;;;;7.60;3.50;;;;;;;3.04;100.00;98166.89;219962;1269;138720;-86
2023/02/25 08:41:30;;;;;;;6.80;3.10;;;;;;;3.10;100.00;98173.14;220658;1270;140420;-84
2023/02/25 08:46:33;;;;;;;8.00;3.50;;;;;;;3.12;100.00;98173.22;220436;1269;141478;-85
2023/02/25 08:51:34;;;;;;;8.50;4.20;;;;;;;3.16;100.00;98180.77;220550;1269;138704;-87
2023/02/25 08:56:35;;;;;;;9.40;4.90;;;;;;;3.17;100.00;98183.02;220521;1269;139044;-89
2023/02/25 09:01:45;;;;;;;9.50;5.40;;;;;;;3.23;100.00;98190.89;220830;1269;138391;-88
2023/02/25 09:06:46;;;;;;;10.10;5.10;;;;;;;3.34;100.00;98197.67;220054;1269;138706;-86
2023/02/25 09:11:48;;;;;;;9.10;4.80;;;;;;;3.45;100.00;98202.00;220653;1269;138577;-85
2023/02/25 09:16:48;;;;;;;12.30;6.30;;;;;;;3.56;100.00;98203.67;220114;1268;139508;-86
2023/02/25 09:21:49;;;;;;;7.30;3.40;;;;;;;3.66;100.00;98210.77;220829;1271;139160;-87
2023/02/25 09:26:52;;;;;;;7.60;3.30;;;;;;;3.77;100.00;98214.36;220546;1268;140048;-90
2023/02/25 09:31:53;;;;;;;9.00;3.80;;;;;;;3.85;100.00;98214.54;221272;1268;139187;-86
2023/02/25 09:36:53;;;;;;;6.20;3.20;;;;;;;3.95;100.00;98217.73;220192;1269;138649;-87
2023/02/25 09:42:06;;;;;;;7.60;3.80;;;;;;;3.93;100.00;98225.75;220759;1269;138452;-87
2023/02/25 09:47:21;;;;;;;7.40;3.40;;;;;;;3.98;100.00;98235.55;220316;1271;138904;-86
2023/02/25 09:52:30;;;;;;;6.20;2.70;;;;;;;4.02;100.00;98238.27;220643;1271;138447;-90
2023/02/25 09:57:35;;;;;;;7.60;2.90;;;;;;;4.05;100.00;98239.98;220136;1268;138692;-89
2023/02/25 10:02:50;;;;;;;7.80;3.20;;;;;;;4.10;100.00;98243.89;220854;1271;106757;-92
2023/02/25 10:08:25;;;;;;;8.40;3.00;;;;;;;4.16;100.00;98244.44;220111;1271;138763;-86
2023/02/25 10:14:17;;;;;;;4.70;2.20;;;;;;;4.19;100.00;98255.41;221200;1269;138125;-92
2023/02/25 10:20:00;;;;;;;5.00;2.60;;;;;;;4.21;100.00;98257.74;220198;1271;138682;-93
2023/02/25 10:25:13;;;;;;;5.30;2.50;;;;;;;4.29;100.00;98266.39;221443;1269;138776;-87
2023/02/25 10:30:31;;;;;;;5.20;2.10;;;;;;;4.29;100.00;98268.34;220284;1271;138991;-89
2023/02/25 10:35:38;;;;;;;4.10;2.00;;;;;;;4.32;100.00;98269.98;220643;1269;139165;-85
2023/02/25 10:40:39;;;;;;;6.10;2.20;;;;;;;4.32;100.00;98275.11;220979;1267;138503;-89
2023/02/25 10:46:03;;;;;;;4.20;2.10;;;;;;;4.27;100.00;98282.41;220785;1269;138331;-91
2023/02/25 10:51:14;;;;;;;4.30;1.80;;;;;;;4.24;100.00;98286.85;220879;1269;138345;-88
2023/02/25 10:56:15;;;;;;;7.30;2.80;;;;;;;4.26;100.00;98288.40;220154;1269;138929;-87
2023/02/25 11:01:21;;;;;;;6.20;2.60;;;;;;;4.35;100.00;98289.65;220851;1268;138288;-92
2023/02/25 11:06:31;;;;;;;4.40;2.10;;;;;;;4.47;100.00;98288.73;220099;1269;138369;-87
2023/02/25 11:11:52;;;;;;;4.40;1.90;;;;;;;4.66;100.00;98287.42;220750;1268;139980;-92
2023/02/25 11:17:02;;;;;;;5.00;1.90;;;;;;;4.80;100.00;98286.48;220348;1267;139446;-90
2023/02/25 11:22:17;;;;;;;2.70;1.70;;;;;;;4.89;100.00;98290.91;220974;1268;139097;-92
2023/02/25 11:27:35;;;;;;;2.10;1.00;;;;;;;4.93;100.00;98291.68;220357;1269;138597;-91
2023/02/25 11:32:41;;;;;;;3.70;1.20;;;;;;;4.94;100.00;98299.87;220835;1269;137923;-92
2023/02/25 11:37:43;;;;;;;;;;;;;;;4.99;100.00;98294.71;219977;1269;138948;-87
2023/02/25 11:43:11;;;;;;;3.00;1.30;;;;;;;5.02;100.00;98310.77;220666;1269;125110;-90
2023/02/25 11:48:23;;;;;;;3.70;1.60;;;;;;;4.93;100.00;98320.03;220208;1271;139559;-86
2023/02/25 11:53:37;;;;;;;3.30;1.10;;;;;;;4.95;100.00;98325.55;220680;1271;138854;-87
2023/02/25 11:59:16;;;;;;;2.20;0.70;;;;;;;4.97;100.00;98332.80;220086;1269;139415;-91
2023/02/25 12:04:44;;;;;;;3.60;1.40;;;;;;;4.91;100.00;98343.70;220699;1268;138321;-92
2023/02/25 12:10:15;;;;;;;3.90;1.60;;;;;;;4.85;100.00;98358.34;220111;1267;138600;-89
2023/02/25 12:15:57;;;;;;;2.80;1.40;;;;;;;4.74;100.00;98370.56;220710;1269;105735;-90
2023/02/25 12:21:55;;;;;;;3.50;1.20;;;;;;;4.68;100.00;98385.96;220251;1269;138264;-92
2023/02/25 12:27:26;;;;;;;3.80;1.30;;;;;;;4.59;100.00;98400.11;220106;1271;138402;-93
2023/02/25 12:33:01;;;;;;;4.60;1.60;;;;;;;4.49;100.00;98419.85;221497;1271;138707;-93
2023/02/25 12:38:04;;;;;;;3.60;1.20;;;;;;;4.42;100.00;98428.55;220285;1271;138373;-89
2023/02/25 12:43:24;;;;;;;2.40;1.10;;;;;;;4.39;100.00;98445.95;220865;1269;138568;-92
2023/02/25 12:48:56;;;;;;;3.60;1.30;;;;;;;4.33;100.00;98456.14;220834;1271;139385;-92
2023/02/25 12:54:37;;;;;;;4.20;1.80;;;;;;;4.28;100.00;98468.79;220826;1271;138470;-91
2023/02/25 13:00:08;;;;;;;3.30;1.20;;;;;;;4.24;100.00;98484.95;220671;1271;138526;-94
2023/02/25 13:05:14;;;;;;;3.50;1.40;;;;;;;4.20;100.00;98491.00;220997;1268;138311;-89
2023/02/25 13:10:15;;;;;;;3.90;1.50;;;;;;;4.14;100.00;98502.23;220691;1271;138851;-86
2023/02/25 13:15:56;;;;;;;6.50;2.50;;;;;;;4.06;100.00;98511.67;221906;1269;97823;-94
2023/02/25 13:21:47;;;;;;;;;;;;;;;;;;;;;
2023/02/25 13:27:15;;;;;;;27.40;7.70;;;;;;;3.99;100.00;98533.65;220947;1269;138780;-92
2023/02/25 13:37:56;;;;;;;6.50;2.20;;;;;;;4.00;100.00;98561.65;219046;1269;139112;-85
2023/02/25 13:43:17;;;;;;;5.30;1.80;;;;;;;4.04;100.00;98576.91;219294;1269;138625;-84
2023/02/25 13:48:44;;;;;;;4.30;1.70;;;;;;;4.07;100.00;98586.26;218700;1268;138822;-85
2023/02/25 13:54:10;;;;;;;4.60;1.60;;;;;;;4.10;100.00;98597.10;219415;1269;139210;-85
2023/02/25 13:59:46;;;;;;;5.70;2.10;;;;;;;4.13;100.00;98612.36;218911;1271;138565;-86
2023/02/25 14:04:49;;;;;;;6.50;1.80;;;;;;;4.14;100.00;98623.64;219360;1271;138387;-86
2023/02/25 14:10:02;;;;;;;4.70;1.80;;;;;;;4.15;100.00;98629.95;218809;1271;138306;-86
2023/02/25 14:15:40;;;;;;;5.10;2.10;;;;;;;4.16;100.00;98637.49;219255;1269;138654;-87
2023/02/25 14:21:16;;;;;;;3.80;1.60;;;;;;;4.16;100.00;98653.52;218808;1269;138642;-87
2023/02/25 14:26:39;;;;;;;4.90;1.60;;;;;;;4.15;100.00;98663.23;218676;1269;138966;-85
2023/02/25 14:31:54;;;;;;;5.20;2.20;;;;;;;4.13;100.00;98678.09;219270;1271;138149;-87
2023/02/25 14:37:13;;;;;;;5.90;2.40;;;;;;;4.17;100.00;98685.82;218818;1269;138606;-87
2023/02/25 14:42:41;;;;;;;8.70;3.30;;;;;;;4.21;100.00;98694.95;219433;1271;138528;-88
2023/02/25 14:48:07;;;;;;;14.00;6.70;;;;;;;4.21;100.00;98707.32;218777;1271;139178;-88
2023/02/25 14:53:23;;;;;;;11.50;5.00;;;;;;;4.08;100.00;98725.94;219573;1271;138490;-85
2023/02/25 14:58:55;;;;;;;11.60;4.70;;;;;;;3.94;100.00;98737.39;219049;1267;138843;-87
2023/02/25 15:04:16;;;;;;;12.10;4.80;;;;;;;3.79;100.00;98750.99;219450;1269;112116;-87
2023/02/25 15:09:33;;;;;;;11.50;4.80;;;;;;;3.73;100.00;98766.93;218883;1268;138432;-87
2023/02/25 15:14:41;;;;;;;11.30;4.20;;;;;;;3.69;100.00;98776.91;219371;1268;138992;-85
2023/02/25 15:20:09;;;;;;;8.60;2.00;;;;;;;3.64;100.00;98787.74;218833;1269;138844;-86
2023/02/25 15:25:18;;;;;;;13.60;4.20;;;;;;;3.62;100.00;98799.14;219225;1268;139165;-87
2023/02/25 15:30:25;;;;;;;6.90;2.60;;;;;;;3.60;100.00;98810.23;218774;1268;138527;-86
2023/02/25 15:35:34;;;;;;;3.70;1.60;;;;;;;3.53;100.00;98820.92;219533;1268;138432;-85
2023/02/25 15:40:43;;;;;;;7.20;2.50;;;;;;;3.42;100.00;98838.02;218969;1269;141868;-88
2023/02/25 15:45:46;;;;;;;12.30;3.20;;;;;;;3.36;100.00;98853.35;219308;1271;111278;-87
2023/02/25 15:50:46;;;;;;;15.60;5.40;;;;;;;3.29;100.00;98868.30;218853;1271;139122;-87
2023/02/25 15:56:03;;;;;;;13.30;4.00;;;;;;;3.17;100.00;98880.02;219162;1269;138843;-86
2023/02/25 16:01:03;;;;;;;8.50;3.40;;;;;;;3.05;100.00;98891.00;219050;1269;139530;-86
2023/02/25 16:06:13;;;;;;;17.30;7.50;;;;;;;2.95;100.00;98909.31;218921;1271;139062;-87
2023/02/25 16:11:37;;;;;;;19.90;8.00;;;;;;;2.87;100.00;98921.05;219597;1268;139388;-87
2023/02/25 16:16:46;;;;;;;17.20;7.10;;;;;;;2.79;100.00;98937.36;218904;1269;139114;-86
2023/02/25 16:21:53;;;;;;;16.60;8.50;;;;;;;2.71;100.00;98950.71;219408;1269;99118;-87
2023/02/25 16:27:02;;;;;;;;;;;;;;;2.64;100.00;98960.99;219536;1269;138814;-86
2023/02/25 16:32:21;;;;;;;19.40;7.10;;;;;;;2.55;100.00;98974.48;219678;1268;125212;-86
2023/02/25 16:37:21;;;;;;;14.70;5.40;;;;;;;2.50;100.00;98989.58;218989;1271;140115;-86
2023/02/25 16:42:22;;;;;;;13.80;4.00;;;;;;;2.46;100.00;99002.67;219670;1271;138687;-87
2023/02/25 16:47:26;;;;;;;9.00;3.40;;;;;;;2.39;100.00;99012.71;219118;1271;138876;-90
2023/02/25 16:52:31;;;;;;;9.20;3.10;;;;;;;2.31;100.00;99023.78;219493;1271;138402;-88
2023/02/25 16:57:32;;;;;;;14.70;4.10;;;;;;;2.25;100.00;99029.70;219137;1271;139103;-89
2023/02/25 17:02:46;;;;;;;10.50;4.20;;;;;;;2.21;100.00;99041.87;219844;1269;139138;-88
2023/02/25 17:07:53;;;;;;;12.00;3.70;;;;;;;2.19;100.00;99056.57;219188;1271;139058;-89
2023/02/25 17:12:53;;;;;;;45.50;14.10;;;;;;;2.15;100.00;99071.44;219668;1268;222490;-89
2023/02/25 17:18:06;;;;;;;12.00;4.40;;;;;;;2.11;100.00;99085.06;219340;1269;139109;-89
2023/02/25 17:23:09;;;;;;;14.00;5.00;;;;;;;2.01;100.00;99093.67;220069;1269;138636;-89
2023/02/25 17:28:24;;;;;;;16.00;5.90;;;;;;;1.93;100.00;99106.17;219783;1271;139071;-87
2023/02/25 17:33:27;;;;;;;18.90;7.50;;;;;;;1.83;100.00;99113.16;219789;1269;97955;-87
2023/02/25 17:38:29;;;;;;;9.60;3.50;;;;;;;1.74;100.00;99125.64;218829;1267;141586;-88
2023/02/25 17:43:38;;;;;;;10.30;2.90;;;;;;;1.64;100.00;99129.80;219573;1271;138906;-87
2023/02/25 17:48:42;;;;;;;7.90;3.30;;;;;;;1.58;100.00;99139.02;218994;1269;138670;-88
2023/02/25 17:53:47;;;;;;;12.90;3.30;;;;;;;1.52;100.00;99146.68;219629;1269;138941;-87
2023/02/25 17:58:48;;;;;;;9.50;3.30;;;;;;;1.46;100.00;99153.81;218853;1269;139078;-87
2023/02/25 18:03:51;;;;;;;10.60;3.50;;;;;;;1.38;100.00;99159.73;219574;1271;99207;-86
2023/02/25 18:08:54;;;;;;;10.40;3.10;;;;;;;1.29;100.00;99167.61;218791;1272;138567;-87
2023/02/25 18:13:54;;;;;;;8.50;2.40;;;;;;;1.22;100.00;99182.11;219186;1271;138630;-85
2023/02/25 18:18:56;;;;;;;8.40;2.30;;;;;;;1.17;100.00;99189.80;218761;1269;138562;-88
2023/02/25 18:23:58;;;;;;;5.80;2.10;;;;;;;1.14;100.00;99200.39;219612;1271;138850;-89
2023/02/25 18:28:59;;;;;;;5.40;1.50;;;;;;;1.13;100.00;99215.52;218598;1271;138849;-89
2023/02/25 18:33:59;;;;;;;6.00;1.70;;;;;;;1.10;100.00;99220.41;219491;1271;102930;-87
2023/02/25 18:39:02;;;;;;;7.10;3.20;;;;;;;1.07;100.00;99219.15;218974;1271;138695;-90
2023/02/25 18:44:05;;;;;;;8.20;2.40;;;;;;;1.05;100.00;99226.00;219607;1271;138161;-88
2023/02/25 18:49:06;;;;;;;8.90;2.40;;;;;;;1.01;100.00;99237.34;219404;1270;138549;-88
2023/02/25 18:54:13;;;;;;;10.80;3.20;;;;;;;1.00;100.00;99253.17;219954;1268;138410;-87
2023/02/25 18:59:14;;;;;;;8.40;3.20;;;;;;;1.00;100.00;99263.75;219937;1269;140219;-90
2023/02/25 19:04:15;;;;;;;9.80;3.80;;;;;;;1.00;100.00;99273.59;220737;1271;98394;-87
2023/02/25 19:09:15;;;;;;;12.30;3.50;;;;;;;1.00;100.00;99280.08;219016;1269;138853;-88
2023/02/25 19:14:18;;;;;;;9.00;3.50;;;;;;;1.00;100.00;99290.68;219358;1269;139290;-89
2023/02/25 19:19:18;;;;;;;15.40;4.30;;;;;;;0.99;100.00;99297.08;218869;1269;139281;-88
2023/02/25 19:24:19;;;;;;;13.90;5.50;;;;;;;0.99;100.00;99306.67;219179;1271;138712;-87
2023/02/25 19:29:19;;;;;;;14.50;4.20;;;;;;;0.98;100.00;99319.35;218632;1269;138738;-87
2023/02/25 19:34:22;;;;;;;10.00;3.60;;;;;;;0.97;100.00;99323.89;219163;1271;138496;-86
2023/02/25 19:39:22;;;;;;;10.00;2.80;;;;;;;0.95;100.00;99331.95;218996;1271;138954;-87
2023/02/25 19:44:23;;;;;;;10.90;2.80;;;;;;;0.93;100.00;99334.75;219279;1271;139058;-88
2023/02/25 19:49:23;;;;;;;9.40;2.80;;;;;;;0.91;100.00;99338.38;218737;1270;138495;-87
2023/02/25 19:54:24;;;;;;;10.00;3.20;;;;;;;0.88;100.00;99345.25;219038;1273;138453;-87
2023/02/25 19:59:28;;;;;;;6.80;2.40;;;;;;;0.85;100.00;99357.84;218646;1271;139541;-87
2023/02/25 20:04:28;;;;;;;6.80;2.30;;;;;;;0.81;100.00;99369.88;219317;1272;138490;-87
2023/02/25 20:09:29;;;;;;;9.50;2.50;;;;;;;0.75;100.00;99378.33;218777;1272;138252;-87
2023/02/25 20:14:31;;;;;;;7.70;2.50;;;;;;;0.70;100.00;99384.67;219169;1271;139024;-87
2023/02/25 20:19:32;;;;;;;8.40;2.20;;;;;;;0.63;100.00;99391.49;218851;1271;138732;-87
2023/02/25 20:24:33;;;;;;;5.50;1.90;;;;;;;0.59;100.00;99397.92;219568;1272;138574;-88
2023/02/25 20:29:33;;;;;;;7.10;2.20;;;;;;;0.55;100.00;99403.35;219003;1271;139015;-89
2023/02/25 20:34:34;;;;;;;8.60;2.20;;;;;;;0.50;100.00;99418.34;219259;1274;138275;-88
2023/02/25 20:39:37;;;;;;;8.70;2.10;;;;;;;0.45;100.00;99429.77;219263;1269;138437;-88
2023/02/25 20:44:39;;;;;;;10.00;2.80;;;;;;;0.41;100.00;99434.04;219776;1272;137158;-87
2023/02/25 20:49:40;;;;;;;7.70;2.20;;;;;;;0.37;100.00;99444.41;219006;1268;139462;-87
2023/02/25 20:54:41;;;;;;;8.00;2.30;;;;;;;0.35;100.00;99452.54;219657;1272;139200;-86
2023/02/25 20:59:42;;;;;;;7.10;2.30;;;;;;;0.33;100.00;99461.14;219064;1271;138478;-88
2023/02/25 21:04:43;;;;;;;6.40;2.40;;;;;;;0.33;100.00;99470.00;219571;1271;139152;-89
2023/02/25 21:09:43;;;;;;;7.20;2.30;;;;;;;0.32;100.00;99474.14;219089;1273;138128;-87
2023/02/25 21:14:44;;;;;;;7.70;2.30;;;;;;;0.31;100.00;99474.89;219499;1273;138245;-88
2023/02/25 21:19:44;;;;;;;9.60;2.40;;;;;;;0.32;100.00;99483.56;218869;1273;138745;-87
2023/02/25 21:24:45;;;;;;;9.10;2.40;;;;;;;0.32;100.00;99494.70;219677;1270;138410;-86
2023/02/25 21:29:45;;;;;;;11.60;2.90;;;;;;;0.33;100.00;99503.81;219052;1273;139198;-86
2023/02/25 21:34:45;;;;;;;7.40;1.80;;;;;;;0.32;100.00;99510.58;219438;1267;138709;-87
2023/02/25 21:39:46;;;;;;;5.80;2.60;;;;;;;0.33;100.00;99518.10;219289;1268;138442;-87
2023/02/25 21:44:46;;;;;;;4.20;1.60;;;;;;;0.33;100.00;99524.81;219740;1273;138517;-87
2023/02/25 21:49:47;;;;;;;10.80;2.40;;;;;;;0.32;100.00;99528.73;219383;1269;138633;-87
2023/02/25 21:54:47;;;;;;;8.00;2.60;;;;;;;0.31;100.00;99530.38;219964;1272;139454;-87
2023/02/25 21:59:48;;;;;;;7.50;2.70;;;;;;;0.27;100.00;99536.83;219238;1268;138872;-85
2023/02/25 22:04:49;;;;;;;9.60;2.70;;;;;;;0.25;100.00;99543.20;219684;1270;139058;-86
2023/02/25 22:09:49;;;;;;;7.20;2.90;;;;;;;0.22;100.00;99553.10;219211;1273;138644;-85
2023/02/25 22:14:50;;;;;;;6.60;2.20;;;;;;;0.18;100.00;99559.98;219595;1267;138257;-86
2023/02/25 22:19:50;;;;;;;5.60;2.50;;;;;;;0.13;100.00;99556.23;218978;1270;139133;-86
2023/02/25 22:24:50;;;;;;;5.20;2.10;;;;;;;0.08;100.00;99564.41;219634;1273;138798;-85
2023/02/25 22:29:51;;;;;;;7.60;1.80;;;;;;;0.04;100.00;99567.46;219135;1272;138358;-85
2023/02/25 22:34:51;;;;;;;7.10;2.10;;;;;;;-0.02;100.00;99571.11;219596;1270;138622;-86
2023/02/25 22:39:52;;;;;;;7.60;2.10;;;;;;;-0.08;100.00;99579.52;219756;1270;138832;-86
2023/02/25 22:44:54;;;;;;;6.70;2.40;;;;;;;-0.12;100.00;99588.02;219578;1270;138536;-85
2023/02/25 22:49:55;;;;;;;6.50;1.80;;;;;;;-0.16;100.00;99589.79;219001;1271;139804;-85
2023/02/25 22:54:55;;;;;;;7.20;2.00;;;;;;;-0.19;100.00;99601.86;219326;1268;139159;-86
2023/02/25 22:59:56;;;;;;;7.10;1.80;;;;;;;-0.23;100.00;99608.48;218896;1273;139348;-86
2023/02/25 23:04:56;;;;;;;9.50;2.10;;;;;;;-0.27;100.00;99618.16;219363;1272;139178;-86
2023/02/25 23:09:56;;;;;;;7.50;2.30;;;;;;;-0.29;100.00;99623.39;218981;1267;138613;-90
2023/02/25 23:14:57;;;;;;;7.10;2.00;;;;;;;-0.33;100.00;99632.27;219324;1267;139370;-90
2023/02/25 23:19:59;;;;;;;6.00;2.30;;;;;;;-0.34;100.00;99636.84;218896;1267;138578;-91
2023/02/25 23:24:59;;;;;;;7.80;2.70;;;;;;;-0.35;100.00;99653.33;219478;1273;138806;-91
2023/02/25 23:30:00;;;;;;;7.10;2.00;;;;;;;-0.37;100.00;99658.75;220264;1270;139210;-91
2023/02/25 23:35:01;;;;;;;5.40;2.10;;;;;;;-0.38;100.00;99663.64;219801;1272;139387;-89